createdAt,value
2023-02-14T00:00:38.169Z,3.66
2023-02-14T00:01:39.611Z,3.78
2023-02-14T00:02:41.088Z,3.81
2023-02-14T00:03:42.586Z,3.57
2023-02-14T00:04:45.882Z,3.52
2023-02-14T00:05:47.510Z,3.58
2023-02-14T00:06:49.407Z,3.53
2023-02-14T00:07:50.919Z,3.62
2023-02-14T00:08:54.136Z,3.54
2023-02-14T00:09:55.567Z,3.57
2023-02-14T00:10:57.296Z,3.67
2023-02-14T00:11:59.030Z,3.67
2023-02-14T00:13:00.487Z,3.82
2023-02-14T00:14:20.477Z,3.83
2023-02-14T00:15:25.363Z,3.56
2023-02-14T00:16:27.171Z,3.52
2023-02-14T00:17:28.687Z,3.54
2023-02-14T00:18:48.744Z,3.53
2023-02-14T00:19:50.539Z,3.63
2023-02-14T00:20:52.046Z,3.67
2023-02-14T00:21:53.772Z,3.66
2023-02-14T00:22:55.251Z,3.61
2023-02-14T00:23:56.664Z,3.67
2023-02-14T00:24:58.142Z,3.68
2023-02-14T00:25:59.555Z,3.75
2023-02-14T00:27:01.708Z,3.80
2023-02-14T00:28:03.129Z,3.89
2023-02-14T00:29:09.325Z,3.89
2023-02-14T00:30:13.308Z,3.91
2023-02-14T00:31:14.870Z,3.94
2023-02-14T00:32:16.381Z,3.99
2023-02-14T00:33:17.813Z,3.93
2023-02-14T00:34:19.898Z,3.91
2023-02-14T00:35:21.353Z,3.73
2023-02-14T00:36:22.846Z,3.19
2023-02-14T00:37:25.111Z,3.01
2023-02-14T00:38:26.523Z,2.86
2023-02-14T00:39:27.962Z,2.89
2023-02-14T00:40:29.542Z,3.02
2023-02-14T00:41:31.239Z,2.99
2023-02-14T00:42:32.730Z,3.01
2023-02-14T00:43:34.219Z,3.00
2023-02-14T00:44:35.645Z,2.91
2023-02-14T00:45:37.095Z,2.89
2023-02-14T00:46:38.725Z,2.92
2023-02-14T00:47:40.209Z,3.02
2023-02-14T00:48:42.054Z,3.16
2023-02-14T00:49:43.534Z,3.17
2023-02-14T00:50:46.263Z,3.28
2023-02-14T00:51:47.735Z,3.22
2023-02-14T00:52:49.176Z,3.29
2023-02-14T00:53:51.216Z,3.34
2023-02-14T00:54:52.640Z,3.30
2023-02-14T00:55:54.057Z,3.11
2023-02-14T00:56:55.483Z,3.07
2023-02-14T00:57:57.474Z,2.95
2023-02-14T00:58:59.252Z,3.02
2023-02-14T01:00:00.696Z,3.18
2023-02-14T01:01:02.645Z,3.23
2023-02-14T01:02:04.620Z,3.25
2023-02-14T01:03:06.061Z,3.33
2023-02-14T01:04:07.927Z,3.45
2023-02-14T01:05:09.376Z,3.58
2023-02-14T01:06:10.905Z,3.60
2023-02-14T01:07:12.463Z,3.67
2023-02-14T01:08:14.537Z,3.55
2023-02-14T01:09:15.979Z,3.35
2023-02-14T01:10:17.657Z,3.30
2023-02-14T01:11:21.949Z,3.36
2023-02-14T01:12:23.374Z,3.41
2023-02-14T01:13:25.206Z,3.49
2023-02-14T01:14:26.621Z,3.58
2023-02-14T01:15:29.045Z,3.65
2023-02-14T01:16:30.888Z,3.71
2023-02-14T01:17:32.429Z,3.75
2023-02-14T01:18:34.827Z,3.76
2023-02-14T01:19:36.691Z,3.80
2023-02-14T01:20:38.598Z,3.81
2023-02-14T01:21:40.120Z,3.77
2023-02-14T01:22:42.652Z,3.66
2023-02-14T01:23:45.114Z,3.71
2023-02-14T01:24:46.537Z,3.44
2023-02-14T01:25:48.002Z,3.21
2023-02-14T01:26:49.463Z,2.95
2023-02-14T01:27:51.326Z,2.96
2023-02-14T01:28:53.436Z,3.12
2023-02-14T01:29:54.868Z,3.21
2023-02-14T01:30:56.295Z,3.24
2023-02-14T01:31:57.776Z,3.00
2023-02-14T01:32:59.350Z,2.96
2023-02-14T01:34:01.653Z,3.06
2023-02-14T01:35:03.286Z,3.05
2023-02-14T01:36:05.041Z,3.10
2023-02-14T01:37:06.446Z,3.14
2023-02-14T01:38:07.845Z,3.14
2023-02-14T01:39:14.667Z,3.03
2023-02-14T01:40:16.307Z,3.04
2023-02-14T01:41:18.365Z,2.90
2023-02-14T01:42:19.888Z,2.87
2023-02-14T01:43:21.343Z,2.85
2023-02-14T01:44:25.776Z,2.85
2023-02-14T01:45:28.225Z,3.02
2023-02-14T01:46:32.972Z,3.06
2023-02-14T01:47:40.278Z,3.14
2023-02-14T01:48:41.853Z,2.90
2023-02-14T01:49:52.142Z,2.87
2023-02-14T01:50:54.791Z,2.74
2023-02-14T01:52:04.438Z,2.83
2023-02-14T01:53:16.051Z,2.92
2023-02-14T01:54:20.039Z,3.10
2023-02-14T01:55:25.362Z,3.07
2023-02-14T01:56:41.068Z,3.16
2023-02-14T01:58:04.009Z,3.22
2023-02-14T01:59:11.653Z,3.25
2023-02-14T02:00:32.358Z,3.40
2023-02-14T02:01:34.051Z,3.48
2023-02-14T02:02:35.762Z,3.48
2023-02-14T02:03:41.816Z,3.54
2023-02-14T02:04:46.930Z,3.46
2023-02-14T02:05:52.152Z,3.33
2023-02-14T02:07:00.139Z,3.21
2023-02-14T02:08:01.971Z,3.19
2023-02-14T02:09:20.413Z,3.09
2023-02-14T02:10:21.994Z,3.08
2023-02-14T02:11:23.526Z,3.01
2023-02-14T02:12:25.004Z,3.02
2023-02-14T02:13:26.466Z,3.04
2023-02-14T02:14:28.529Z,3.05
2023-02-14T02:15:35.720Z,3.21
2023-02-14T02:16:52.222Z,3.28
2023-02-14T02:18:19.141Z,3.17
2023-02-14T02:19:58.614Z,3.06
2023-02-14T02:21:37.792Z,3.15
2023-02-14T02:23:18.104Z,3.16
2023-02-14T02:24:35.187Z,3.22
2023-02-14T02:25:58.466Z,3.21
2023-02-14T02:27:25.800Z,3.28
2023-02-14T02:29:01.738Z,3.23
2023-02-14T02:30:28.282Z,3.11
2023-02-14T02:31:48.300Z,3.19
2023-02-14T02:32:49.712Z,3.17
2023-02-14T02:34:27.196Z,2.96
2023-02-14T02:35:43.700Z,3.02
2023-02-14T02:37:03.811Z,3.13
2023-02-14T02:38:50.352Z,3.17
2023-02-14T02:40:04.792Z,3.17
2023-02-14T02:41:18.367Z,2.93
2023-02-14T02:42:50.621Z,2.98
2023-02-14T02:44:10.685Z,2.98
2023-02-14T02:45:35.883Z,3.08
2023-02-14T02:46:49.292Z,3.14
2023-02-14T02:47:53.687Z,3.31
2023-02-14T02:49:05.072Z,3.28
2023-02-14T02:50:44.278Z,3.17
2023-02-14T02:52:12.897Z,2.86
2023-02-14T02:54:01.479Z,2.77
2023-02-14T02:55:11.656Z,2.66
2023-02-14T02:56:43.019Z,2.59
2023-02-14T02:57:46.871Z,2.69
2023-02-14T02:58:57.223Z,2.78
2023-02-14T02:59:59.763Z,2.97
2023-02-14T03:01:06.706Z,2.98
2023-02-14T03:02:18.430Z,3.04
2023-02-14T03:03:42.362Z,3.14
2023-02-14T03:04:57.032Z,3.29
2023-02-14T03:05:58.861Z,3.33
2023-02-14T03:07:00.716Z,3.35
2023-02-14T03:08:03.954Z,3.45
2023-02-14T03:09:33.083Z,3.47
2023-02-14T03:10:38.126Z,3.45
2023-02-14T03:12:05.447Z,3.54
2023-02-14T03:13:25.457Z,3.59
2023-02-14T03:14:39.637Z,3.63
2023-02-14T03:15:52.583Z,3.39
2023-02-14T03:17:05.409Z,3.30
2023-02-14T03:18:43.789Z,3.32
2023-02-14T03:20:17.878Z,3.12
2023-02-14T03:21:31.428Z,2.99
2023-02-14T03:22:54.040Z,2.94
2023-02-14T03:24:33.230Z,2.58
2023-02-14T03:25:49.648Z,2.56
2023-02-14T03:27:06.828Z,2.70
2023-02-14T03:28:22.797Z,2.85
2023-02-14T03:29:37.105Z,2.96
2023-02-14T03:30:50.871Z,3.05
2023-02-14T03:32:31.305Z,3.12
2023-02-14T03:33:44.801Z,3.17
2023-02-14T03:35:04.275Z,3.26
2023-02-14T03:36:36.283Z,3.37
2023-02-14T03:38:00.483Z,3.43
2023-02-14T03:39:08.576Z,3.40
2023-02-14T03:40:25.138Z,3.44
2023-02-14T03:41:31.606Z,3.45
2023-02-14T03:42:56.213Z,3.52
2023-02-14T03:44:00.869Z,3.58
2023-02-14T03:45:06.216Z,3.61
2023-02-14T03:46:15.754Z,3.54
2023-02-14T03:47:22.369Z,3.55
2023-02-14T03:48:27.340Z,3.46
2023-02-14T03:49:33.966Z,3.46
2023-02-14T03:50:38.174Z,3.52
2023-02-14T03:51:42.630Z,3.60
2023-02-14T03:52:45.770Z,3.69
2023-02-14T03:53:52.085Z,3.71
2023-02-14T03:54:57.524Z,3.77
2023-02-14T03:56:27.125Z,3.76
2023-02-14T03:57:40.456Z,3.75
2023-02-14T03:58:47.162Z,3.76
2023-02-14T03:59:49.011Z,3.74
2023-02-14T04:00:55.072Z,3.79
2023-02-14T04:02:15.341Z,3.85
2023-02-14T04:03:18.673Z,3.90
2023-02-14T04:04:24.126Z,3.92
2023-02-14T04:05:27.898Z,3.89
2023-02-14T04:06:29.443Z,3.79
2023-02-14T04:07:30.929Z,3.79
2023-02-14T04:08:32.465Z,3.70
2023-02-14T04:09:33.874Z,3.70
2023-02-14T04:10:35.666Z,3.74
2023-02-14T04:11:39.026Z,3.81
2023-02-14T04:12:40.550Z,3.93
2023-02-14T04:13:41.997Z,3.97
2023-02-14T04:14:43.478Z,3.98
2023-02-14T04:15:45.070Z,3.93
2023-02-14T04:17:05.156Z,3.83
2023-02-14T04:18:25.100Z,3.76
2023-02-14T04:19:26.642Z,3.52
2023-02-14T04:20:28.878Z,3.40
2023-02-14T04:21:30.330Z,3.38
2023-02-14T04:22:31.762Z,3.38
2023-02-14T04:23:33.216Z,3.49
2023-02-14T04:24:34.653Z,3.49
2023-02-14T04:25:36.261Z,3.53
2023-02-14T04:26:37.732Z,3.61
2023-02-14T04:27:39.341Z,3.63
2023-02-14T04:28:40.817Z,3.62
2023-02-14T04:29:49.882Z,3.54
2023-02-14T04:30:51.412Z,3.26
2023-02-14T04:31:52.982Z,3.30
2023-02-14T04:32:54.504Z,3.32
2023-02-14T04:33:56.033Z,3.41
2023-02-14T04:34:57.444Z,3.45
2023-02-14T04:36:00.129Z,3.39
2023-02-14T04:37:01.741Z,3.33
2023-02-14T04:38:04.186Z,3.37
2023-02-14T04:39:05.611Z,3.38
2023-02-14T04:40:07.727Z,3.21
2023-02-14T04:41:09.197Z,3.06
2023-02-14T04:42:10.906Z,2.91
2023-02-14T04:43:12.371Z,2.92
2023-02-14T04:44:14.181Z,2.79
2023-02-14T04:45:15.704Z,2.93
2023-02-14T04:46:17.208Z,2.92
2023-02-14T04:47:18.809Z,2.91
2023-02-14T04:48:20.349Z,3.01
2023-02-14T04:49:21.969Z,3.06
2023-02-14T04:50:23.532Z,2.91
2023-02-14T04:51:27.354Z,2.88
2023-02-14T04:52:29.155Z,3.06
2023-02-14T04:53:30.584Z,3.18
2023-02-14T04:54:33.315Z,3.31
2023-02-14T04:55:34.758Z,3.36
2023-02-14T04:56:36.240Z,3.33
2023-02-14T04:57:37.815Z,3.30
2023-02-14T04:58:39.303Z,3.27
2023-02-14T04:59:40.718Z,3.31
2023-02-14T05:00:42.168Z,3.40
2023-02-14T05:01:43.679Z,3.37
2023-02-14T05:02:45.208Z,3.39
2023-02-14T05:03:46.746Z,3.33
2023-02-14T05:04:49.760Z,3.30
2023-02-14T05:05:51.622Z,3.37
2023-02-14T05:06:53.114Z,3.30
2023-02-14T05:07:54.531Z,3.29
2023-02-14T05:08:56.755Z,3.31
2023-02-14T05:09:58.408Z,3.27
2023-02-14T05:11:00.136Z,3.24
2023-02-14T05:12:01.806Z,3.27
2023-02-14T05:13:03.304Z,3.33
2023-02-14T05:14:04.933Z,3.31
2023-02-14T05:15:06.626Z,3.39
2023-02-14T05:16:08.182Z,3.37
2023-02-14T05:17:09.856Z,2.95
2023-02-14T05:18:11.258Z,2.79
2023-02-14T05:19:13.232Z,2.40
2023-02-14T05:20:14.887Z,2.44
2023-02-14T05:21:16.339Z,2.38
2023-02-14T05:22:18.608Z,2.30
2023-02-14T05:23:21.257Z,2.26
2023-02-14T05:24:22.751Z,2.18
2023-02-14T05:25:24.194Z,2.18
2023-02-14T05:26:25.811Z,2.17
2023-02-14T05:27:27.608Z,2.17
2023-02-14T05:28:29.050Z,1.97
2023-02-14T05:29:30.469Z,2.09
2023-02-14T05:30:32.361Z,2.33
2023-02-14T05:31:33.946Z,2.46
2023-02-14T05:32:35.512Z,2.27
2023-02-14T05:33:36.990Z,2.33
2023-02-14T05:34:38.408Z,2.30
2023-02-14T05:35:39.852Z,2.24
2023-02-14T05:36:41.285Z,2.35
2023-02-14T05:37:42.717Z,2.44
2023-02-14T05:38:44.436Z,2.55
2023-02-14T05:39:45.904Z,2.64
2023-02-14T05:40:47.362Z,2.70
2023-02-14T05:41:48.781Z,2.75
2023-02-14T05:42:52.309Z,2.81
2023-02-14T05:43:53.752Z,2.80
2023-02-14T05:44:55.186Z,2.83
2023-02-14T05:45:57.817Z,2.87
2023-02-14T05:46:59.674Z,2.80
2023-02-14T05:48:01.467Z,2.72
2023-02-14T05:49:03.502Z,2.83
2023-02-14T05:50:06.269Z,2.82
2023-02-14T05:51:10.611Z,2.56
2023-02-14T05:52:12.063Z,2.60
2023-02-14T05:53:13.973Z,2.60
2023-02-14T05:54:15.619Z,2.70
2023-02-14T05:55:17.185Z,2.76
2023-02-14T05:56:18.600Z,2.72
2023-02-14T05:57:20.118Z,2.56
2023-02-14T05:58:21.520Z,2.70
2023-02-14T05:59:22.960Z,2.52
2023-02-14T06:00:24.922Z,2.11
2023-02-14T06:01:26.383Z,2.11
2023-02-14T06:02:27.881Z,2.17
2023-02-14T06:03:29.333Z,2.26
2023-02-14T06:04:30.816Z,2.31
2023-02-14T06:05:32.251Z,2.21
2023-02-14T06:06:36.283Z,2.22
2023-02-14T06:07:38.151Z,2.26
2023-02-14T06:08:39.604Z,2.29
2023-02-14T06:09:41.055Z,2.39
2023-02-14T06:10:42.582Z,2.54
2023-02-14T06:11:44.414Z,2.54
2023-02-14T06:12:48.318Z,2.62
2023-02-14T06:13:49.814Z,2.66
2023-02-14T06:14:51.243Z,2.71
2023-02-14T06:15:52.687Z,2.69
2023-02-14T06:16:54.364Z,2.67
2023-02-14T06:17:57.025Z,2.64
2023-02-14T06:18:58.478Z,2.38
2023-02-14T06:19:59.909Z,2.44
2023-02-14T06:21:01.637Z,2.56
2023-02-14T06:22:04.028Z,2.60
2023-02-14T06:23:05.516Z,2.61
2023-02-14T06:24:07.082Z,2.43
2023-02-14T06:25:08.490Z,2.38
2023-02-14T06:26:09.979Z,2.33
2023-02-14T06:27:11.416Z,2.37
2023-02-14T06:28:12.880Z,2.35
2023-02-14T06:29:17.375Z,2.42
2023-02-14T06:30:19.246Z,2.26
2023-02-14T06:31:21.326Z,2.00
2023-02-14T06:32:23.211Z,2.01
2023-02-14T06:33:24.709Z,2.09
2023-02-14T06:34:26.194Z,1.97
2023-02-14T06:35:27.654Z,2.06
2023-02-14T06:36:29.397Z,2.04
2023-02-14T06:37:33.637Z,2.07
2023-02-14T06:38:35.088Z,2.11
2023-02-14T06:39:36.603Z,2.25
2023-02-14T06:40:38.028Z,2.29
2023-02-14T06:41:39.473Z,2.08
2023-02-14T06:42:41.002Z,1.94
2023-02-14T06:43:43.650Z,1.94
2023-02-14T06:44:45.107Z,2.10
2023-02-14T06:45:46.916Z,2.08
2023-02-14T06:46:48.381Z,1.95
2023-02-14T06:47:49.858Z,2.02
2023-02-14T06:48:51.342Z,2.18
2023-02-14T06:49:52.764Z,2.30
2023-02-14T06:50:54.498Z,2.20
2023-02-14T06:51:55.978Z,2.03
2023-02-14T06:52:57.456Z,2.08
2023-02-14T06:53:58.896Z,2.00
2023-02-14T06:55:00.360Z,1.99
2023-02-14T06:56:02.202Z,2.09
2023-02-14T06:57:03.934Z,2.25
2023-02-14T06:58:05.432Z,2.32
2023-02-14T06:59:06.951Z,2.08
2023-02-14T07:00:10.259Z,2.08
2023-02-14T07:01:12.144Z,2.23
2023-02-14T07:02:13.673Z,1.98
2023-02-14T07:03:15.786Z,1.90
2023-02-14T07:04:17.786Z,1.67
2023-02-14T07:05:19.318Z,1.64
2023-02-14T07:06:21.211Z,1.61
2023-02-14T07:07:22.629Z,1.72
2023-02-14T07:08:26.160Z,1.72
2023-02-14T07:09:27.738Z,1.57
2023-02-14T07:10:29.171Z,1.66
2023-02-14T07:11:30.656Z,1.77
2023-02-14T07:12:32.157Z,1.71
2023-02-14T07:13:33.594Z,1.64
2023-02-14T07:14:35.108Z,1.77
2023-02-14T07:15:36.560Z,1.88
2023-02-14T07:16:38.017Z,2.00
2023-02-14T07:17:39.835Z,1.87
2023-02-14T07:18:41.386Z,1.93
2023-02-14T07:19:42.791Z,2.04
2023-02-14T07:20:45.077Z,2.15
2023-02-14T07:21:46.492Z,2.19
2023-02-14T07:22:48.012Z,2.31
2023-02-14T07:23:50.173Z,2.41
2023-02-14T07:24:51.627Z,2.44
2023-02-14T07:25:53.117Z,2.52
2023-02-14T07:26:54.584Z,2.50
2023-02-14T07:27:56.002Z,2.55
2023-02-14T07:28:57.459Z,2.61
2023-02-14T07:29:59.291Z,2.65
2023-02-14T07:31:01.824Z,2.68
2023-02-14T07:32:03.733Z,2.70
2023-02-14T07:33:05.409Z,2.75
2023-02-14T07:34:06.829Z,2.79
2023-02-14T07:35:08.814Z,2.81
2023-02-14T07:36:10.516Z,2.93
2023-02-14T07:37:11.905Z,2.96
2023-02-14T07:38:13.378Z,3.05
2023-02-14T07:39:14.812Z,2.98
2023-02-14T07:40:16.479Z,3.06
2023-02-14T07:41:17.985Z,2.99
2023-02-14T07:42:19.453Z,2.96
2023-02-14T07:43:20.870Z,2.72
2023-02-14T07:44:22.485Z,2.69
2023-02-14T07:45:25.116Z,2.78
2023-02-14T07:46:26.653Z,2.82
2023-02-14T07:47:28.162Z,2.82
2023-02-14T07:48:31.945Z,2.88
2023-02-14T07:49:35.892Z,2.81
2023-02-14T07:50:37.693Z,2.77
2023-02-14T07:51:39.305Z,2.75
2023-02-14T07:52:40.739Z,2.72
2023-02-14T07:53:42.217Z,2.74
2023-02-14T07:54:43.755Z,2.67
2023-02-14T07:55:50.347Z,2.29
2023-02-14T07:56:51.861Z,2.15
2023-02-14T07:57:53.329Z,1.93
2023-02-14T07:58:54.922Z,1.86
2023-02-14T07:59:56.367Z,2.00
2023-02-14T08:00:58.291Z,2.07
2023-02-14T08:01:59.977Z,2.10
2023-02-14T08:03:01.509Z,2.24
2023-02-14T08:04:03.112Z,2.31
2023-02-14T08:05:04.978Z,2.40
2023-02-14T08:06:06.479Z,2.38
2023-02-14T08:07:07.980Z,2.34
2023-02-14T08:08:09.529Z,2.36
2023-02-14T08:09:11.240Z,2.48
2023-02-14T08:10:13.272Z,2.58
2023-02-14T08:11:35.282Z,2.30
2023-02-14T08:12:55.350Z,2.20
2023-02-14T08:13:56.791Z,2.07
2023-02-14T08:15:18.250Z,2.17
2023-02-14T08:16:19.720Z,2.38
2023-02-14T08:17:21.184Z,2.45
2023-02-14T08:18:23.240Z,2.47
2023-02-14T08:19:24.714Z,2.58
2023-02-14T08:20:26.337Z,2.71
2023-02-14T08:21:28.244Z,2.74
2023-02-14T08:22:29.682Z,2.75
2023-02-14T08:23:31.772Z,2.75
2023-02-14T08:24:33.229Z,2.73
2023-02-14T08:25:34.758Z,2.77
2023-02-14T08:26:36.574Z,2.69
2023-02-14T08:27:37.989Z,2.56
2023-02-14T08:28:39.408Z,2.67
2023-02-14T08:29:40.825Z,2.76
2023-02-14T08:30:44.381Z,2.74
2023-02-14T08:31:47.472Z,2.73
2023-02-14T08:32:49.168Z,2.73
2023-02-14T08:33:50.657Z,2.72
2023-02-14T08:34:52.400Z,2.75
2023-02-14T08:35:53.978Z,2.90
2023-02-14T08:36:55.491Z,2.98
2023-02-14T08:37:56.978Z,3.00
2023-02-14T08:38:58.547Z,2.91
2023-02-14T08:40:00.063Z,2.92
2023-02-14T08:41:04.402Z,2.89
2023-02-14T08:42:07.294Z,2.88
2023-02-14T08:43:09.689Z,2.97
2023-02-14T08:44:11.543Z,3.01
2023-02-14T08:45:12.980Z,3.08
2023-02-14T08:46:15.102Z,3.07
2023-02-14T08:47:16.539Z,3.16
2023-02-14T08:48:18.018Z,3.22
2023-02-14T08:49:19.398Z,3.21
2023-02-14T08:50:21.525Z,3.11
2023-02-14T08:51:23.894Z,2.77
2023-02-14T08:52:25.354Z,2.67
2023-02-14T08:53:26.776Z,2.43
2023-02-14T08:54:28.155Z,2.36
2023-02-14T08:55:29.914Z,2.31
2023-02-14T08:56:31.373Z,2.43
2023-02-14T08:57:33.090Z,2.56
2023-02-14T08:58:38.670Z,2.64
2023-02-14T08:59:40.084Z,2.45
2023-02-14T09:00:41.585Z,2.37
2023-02-14T09:01:43.080Z,2.36
2023-02-14T09:02:44.489Z,2.46
2023-02-14T09:03:45.988Z,2.48
2023-02-14T09:04:47.465Z,2.36
2023-02-14T09:05:48.890Z,2.24
2023-02-14T09:06:50.628Z,2.27
2023-02-14T09:07:52.838Z,2.42
2023-02-14T09:08:55.235Z,2.57
2023-02-14T09:09:56.815Z,2.66
2023-02-14T09:10:58.821Z,2.73
2023-02-14T09:12:04.820Z,2.81
2023-02-14T09:13:06.286Z,2.80
2023-02-14T09:14:07.813Z,2.89
2023-02-14T09:15:11.292Z,3.04
2023-02-14T09:16:16.510Z,3.15
2023-02-14T09:17:18.273Z,3.19
2023-02-14T09:18:19.724Z,2.96
2023-02-14T09:19:21.221Z,2.84
2023-02-14T09:20:23.282Z,2.70
2023-02-14T09:21:27.124Z,2.56
2023-02-14T09:22:28.620Z,2.48
2023-02-14T09:23:30.056Z,2.35
2023-02-14T09:24:33.749Z,2.20
2023-02-14T09:25:35.172Z,2.09
2023-02-14T09:26:38.854Z,2.23
2023-02-14T09:27:40.382Z,2.31
2023-02-14T09:28:42.251Z,2.36
2023-02-14T09:29:44.008Z,2.51
2023-02-14T09:30:45.535Z,2.65
2023-02-14T09:31:47.122Z,2.55
2023-02-14T09:32:50.788Z,2.23
2023-02-14T09:34:10.893Z,2.26
2023-02-14T09:35:12.838Z,2.47
2023-02-14T09:36:14.410Z,2.62
2023-02-14T09:37:34.105Z,2.74
2023-02-14T09:38:35.580Z,2.93
2023-02-14T09:39:37.603Z,3.00
2023-02-14T09:40:39.184Z,3.11
2023-02-14T09:41:52.262Z,3.22
2023-02-14T09:43:02.797Z,3.26
2023-02-14T09:44:24.936Z,3.23
2023-02-14T09:45:29.035Z,3.28
2023-02-14T09:46:37.411Z,3.20
2023-02-14T09:47:47.517Z,3.12
2023-02-14T09:48:49.794Z,2.95
2023-02-14T09:49:53.388Z,3.04
2023-02-14T09:51:00.246Z,2.74
2023-02-14T09:52:04.463Z,2.26
2023-02-14T09:53:55.349Z,2.26
2023-02-14T09:55:01.310Z,2.31
2023-02-14T09:56:25.005Z,2.31
2023-02-14T09:57:42.828Z,2.48
2023-02-14T09:58:53.713Z,2.61
2023-02-14T10:00:12.716Z,2.74
2023-02-14T10:01:29.059Z,2.61
2023-02-14T10:02:53.620Z,2.63
2023-02-14T10:04:11.556Z,2.72
2023-02-14T10:05:38.586Z,2.59
2023-02-14T10:06:51.454Z,2.64
2023-02-14T10:08:00.469Z,2.52
2023-02-14T10:09:17.064Z,2.39
2023-02-14T10:10:40.243Z,2.47
2023-02-14T10:11:45.477Z,2.39
2023-02-14T10:13:01.839Z,2.34
2023-02-14T10:14:16.080Z,2.47
2023-02-14T10:15:23.721Z,2.56
2023-02-14T10:16:43.125Z,2.61
2023-02-14T10:17:54.701Z,2.72
2023-02-14T10:19:03.166Z,2.54
2023-02-14T10:20:16.678Z,2.51
2023-02-14T10:21:32.487Z,2.53
2023-02-14T10:22:50.382Z,2.58
2023-02-14T10:24:01.918Z,2.47
2023-02-14T10:25:13.481Z,2.61
2023-02-14T10:26:22.732Z,2.71
2023-02-14T10:27:24.312Z,2.91
2023-02-14T10:28:32.270Z,2.89
2023-02-14T10:29:33.670Z,2.95
2023-02-14T10:30:39.688Z,2.61
2023-02-14T10:31:44.461Z,2.22
2023-02-14T10:33:11.174Z,2.32
2023-02-14T10:34:28.164Z,2.54
2023-02-14T10:35:43.470Z,2.66
2023-02-14T10:37:02.847Z,2.56
2023-02-14T10:38:30.539Z,2.46
2023-02-14T10:39:50.262Z,2.36
2023-02-14T10:41:20.732Z,2.30
2023-02-14T10:42:57.004Z,2.22
2023-02-14T10:44:13.593Z,2.33
2023-02-14T10:45:49.396Z,2.53
2023-02-14T10:46:53.598Z,2.73
2023-02-14T10:48:32.586Z,2.86
2023-02-14T10:49:47.416Z,2.96
2023-02-14T10:50:58.988Z,3.14
2023-02-14T10:52:08.090Z,3.28
2023-02-14T10:53:37.412Z,3.42
2023-02-14T10:54:43.029Z,3.48
2023-02-14T10:55:54.943Z,3.55
2023-02-14T10:57:04.551Z,3.46
2023-02-14T10:58:09.028Z,3.47
2023-02-14T10:59:45.937Z,3.53
2023-02-14T11:00:59.824Z,3.46
2023-02-14T11:02:02.084Z,3.56
2023-02-14T11:03:08.089Z,3.59
2023-02-14T11:04:12.718Z,3.62
2023-02-14T11:05:31.415Z,3.68
2023-02-14T11:06:33.385Z,3.70
2023-02-14T11:07:34.856Z,3.62
2023-02-14T11:08:41.512Z,3.75
2023-02-14T11:09:43.673Z,3.78
2023-02-14T11:10:45.747Z,3.77
2023-02-14T11:12:00.263Z,3.64
2023-02-14T11:13:01.747Z,3.68
2023-02-14T11:14:22.034Z,3.66
2023-02-14T11:15:34.019Z,3.79
2023-02-14T11:16:37.369Z,3.77
2023-02-14T11:17:39.023Z,3.84
2023-02-14T11:18:41.249Z,3.85
2023-02-14T11:19:55.515Z,3.88
2023-02-14T11:21:02.721Z,3.97
2023-02-14T11:22:04.750Z,4.02
2023-02-14T11:23:20.423Z,3.94
2023-02-14T11:24:28.048Z,3.85
2023-02-14T11:25:31.746Z,3.73
2023-02-14T11:26:35.128Z,3.65
2023-02-14T11:27:37.880Z,3.79
2023-02-14T11:28:49.451Z,3.87
2023-02-14T11:29:53.746Z,3.97
2023-02-14T11:30:55.447Z,4.05
2023-02-14T11:32:06.838Z,3.87
2023-02-14T11:33:22.397Z,3.68
2023-02-14T11:34:30.240Z,3.72
2023-02-14T11:35:35.491Z,3.83
2023-02-14T11:36:42.160Z,3.77
2023-02-14T11:37:50.460Z,3.80
2023-02-14T11:39:32.118Z,3.88
2023-02-14T11:40:36.645Z,3.98
2023-02-14T11:41:49.837Z,4.03
2023-02-14T11:42:54.665Z,4.10
2023-02-14T11:44:16.029Z,4.19
2023-02-14T11:45:38.433Z,4.23
2023-02-14T11:46:53.086Z,4.28
2023-02-14T11:48:36.585Z,4.35
2023-02-14T11:49:39.046Z,4.40
2023-02-14T11:50:42.568Z,4.38
2023-02-14T11:51:45.425Z,4.33
2023-02-14T11:52:53.122Z,4.39
2023-02-14T11:54:00.566Z,4.45
2023-02-14T11:55:02.123Z,4.40
2023-02-14T11:56:03.864Z,4.46
2023-02-14T11:57:08.080Z,4.54
2023-02-14T11:58:27.861Z,4.59
2023-02-14T11:59:32.526Z,4.72
2023-02-14T12:00:35.116Z,4.75
2023-02-14T12:01:40.812Z,4.69
2023-02-14T12:02:51.605Z,4.74
2023-02-14T12:03:56.178Z,4.55
2023-02-14T12:05:01.705Z,4.56
2023-02-14T12:06:03.300Z,4.61
2023-02-14T12:07:18.954Z,4.77
2023-02-14T12:08:26.688Z,4.82
2023-02-14T12:09:30.615Z,4.80
2023-02-14T12:10:35.163Z,4.76
2023-02-14T12:11:37.725Z,4.69
2023-02-14T12:12:56.337Z,4.69
2023-02-14T12:13:58.271Z,4.63
2023-02-14T12:15:23.995Z,4.64
2023-02-14T12:16:34.638Z,4.70
2023-02-14T12:17:39.080Z,4.63
2023-02-14T12:18:47.146Z,4.72
2023-02-14T12:20:09.483Z,4.78
2023-02-14T12:21:25.983Z,4.86
2023-02-14T12:22:36.413Z,4.86
2023-02-14T12:23:49.189Z,4.83
2023-02-14T12:24:54.081Z,4.84
2023-02-14T12:26:41.461Z,4.87
2023-02-14T12:27:53.416Z,4.77
2023-02-14T12:29:20.592Z,4.70
2023-02-14T12:30:24.033Z,4.69
2023-02-14T12:31:25.632Z,4.66
2023-02-14T12:32:29.623Z,4.76
2023-02-14T12:33:31.214Z,4.86
2023-02-14T12:34:33.870Z,4.95
2023-02-14T12:35:54.797Z,4.93
2023-02-14T12:37:26.109Z,5.05
2023-02-14T12:38:57.767Z,4.96
2023-02-14T12:40:05.516Z,4.88
2023-02-14T12:41:09.882Z,4.83
2023-02-14T12:42:45.334Z,4.76
2023-02-14T12:43:57.383Z,4.38
2023-02-14T12:45:04.032Z,4.56
2023-02-14T12:46:29.634Z,4.49
2023-02-14T12:47:49.958Z,4.55
2023-02-14T12:49:24.839Z,4.78
2023-02-14T12:50:52.992Z,4.76
2023-02-14T12:52:09.790Z,4.83
2023-02-14T12:53:38.008Z,4.86
2023-02-14T12:54:39.575Z,4.76
2023-02-14T12:55:56.266Z,4.81
2023-02-14T12:57:11.824Z,4.86
2023-02-14T12:58:27.045Z,4.94
2023-02-14T12:59:40.897Z,5.08
2023-02-14T13:00:48.116Z,5.16
2023-02-14T13:02:24.399Z,5.20
2023-02-14T13:03:25.796Z,5.16
2023-02-14T13:04:46.498Z,5.17
2023-02-14T13:06:28.255Z,5.27
2023-02-14T13:07:43.416Z,5.41
2023-02-14T13:09:05.038Z,5.53
2023-02-14T13:10:25.398Z,5.63
2023-02-14T13:11:46.782Z,5.74
2023-02-14T13:13:02.078Z,5.64
2023-02-14T13:14:29.608Z,5.69
2023-02-14T13:15:48.109Z,5.75
2023-02-14T13:16:55.173Z,5.79
2023-02-14T13:18:38.823Z,5.83
2023-02-14T13:20:11.124Z,5.99
2023-02-14T13:21:17.703Z,6.04
2023-02-14T13:22:22.149Z,6.05
2023-02-14T13:23:40.463Z,6.15
2023-02-14T13:24:48.236Z,6.09
2023-02-14T13:25:56.950Z,6.10
2023-02-14T13:27:05.765Z,6.07
2023-02-14T13:28:13.028Z,5.96
2023-02-14T13:29:19.444Z,5.99
2023-02-14T13:30:32.314Z,6.01
2023-02-14T13:31:34.133Z,5.91
2023-02-14T13:32:40.509Z,5.78
2023-02-14T13:33:48.815Z,5.81
2023-02-14T13:34:50.743Z,5.85
2023-02-14T13:35:56.032Z,5.88
2023-02-14T13:36:59.434Z,5.96
2023-02-14T13:38:06.172Z,6.01
2023-02-14T13:39:12.282Z,6.09
2023-02-14T13:40:20.632Z,6.05
2023-02-14T13:41:24.107Z,6.09
2023-02-14T13:42:50.696Z,6.18
2023-02-14T13:43:58.086Z,6.23
2023-02-14T13:44:59.543Z,5.96
2023-02-14T13:46:01.046Z,5.96
2023-02-14T13:47:02.535Z,6.01
2023-02-14T13:48:12.650Z,6.10
2023-02-14T13:49:34.733Z,6.16
2023-02-14T13:50:40.035Z,6.14
2023-02-14T13:51:50.275Z,6.21
2023-02-14T13:52:51.798Z,6.21
2023-02-14T13:53:53.270Z,6.35
2023-02-14T13:55:03.256Z,6.33
2023-02-14T13:56:25.427Z,6.31
2023-02-14T13:57:36.667Z,6.32
2023-02-14T13:58:59.916Z,6.37
2023-02-14T14:00:19.610Z,6.49
2023-02-14T14:01:37.891Z,6.46
2023-02-14T14:02:56.019Z,6.39
2023-02-14T14:04:03.953Z,6.46
2023-02-14T14:05:30.620Z,6.53
2023-02-14T14:07:03.995Z,6.38
2023-02-14T14:08:20.596Z,6.29
2023-02-14T14:09:42.032Z,6.37
2023-02-14T14:10:51.434Z,6.31
2023-02-14T14:11:52.968Z,6.32
2023-02-14T14:12:54.408Z,6.29
2023-02-14T14:14:23.294Z,6.35
2023-02-14T14:15:24.910Z,6.36
2023-02-14T14:16:33.648Z,6.47
2023-02-14T14:17:42.870Z,6.45
2023-02-14T14:18:44.335Z,6.48
2023-02-14T14:19:47.098Z,6.48
2023-02-14T14:20:49.087Z,6.63
2023-02-14T14:22:09.977Z,6.66
2023-02-14T14:23:33.407Z,6.64
2023-02-14T14:24:51.009Z,6.78
2023-02-14T14:25:52.508Z,6.91
2023-02-14T14:27:06.203Z,6.99
2023-02-14T14:28:23.117Z,7.10
2023-02-14T14:29:35.070Z,7.09
2023-02-14T14:30:36.951Z,7.17
2023-02-14T14:31:41.090Z,7.12
2023-02-14T14:32:43.399Z,7.07
2023-02-14T14:33:44.933Z,6.96
2023-02-14T14:34:58.505Z,6.99
2023-02-14T14:36:07.790Z,6.83
2023-02-14T14:37:19.144Z,6.84
2023-02-14T14:38:21.361Z,6.87
2023-02-14T14:39:29.437Z,6.97
2023-02-14T14:40:34.185Z,6.98
2023-02-14T14:41:35.790Z,6.98
2023-02-14T14:42:40.091Z,7.07
2023-02-14T14:43:42.172Z,7.16
2023-02-14T14:44:55.900Z,7.12
2023-02-14T14:45:59.633Z,7.09
2023-02-14T14:47:02.107Z,7.18
2023-02-14T14:48:12.358Z,7.24
2023-02-14T14:49:16.293Z,7.37
2023-02-14T14:50:22.837Z,7.47
2023-02-14T14:51:26.056Z,7.52
2023-02-14T14:52:32.995Z,7.58
2023-02-14T14:53:45.072Z,7.50
2023-02-14T14:54:46.593Z,7.46
2023-02-14T14:55:52.065Z,7.44